Time;durP1;ratioP1;P1;durP2;ratioP2;P2;SDS_P1;SDS_P2;PMS_P1;PMS_P2;Temp;Humidity;BMP_temperature;BMP_pressure;BME280_temperature;BME280_humidity;BME280_pressure;Samples;Min_cycle;Max_cycle;Signal;HPM_P1;HPM_P2
2021/03/30 00:01:28;;;;;;;8.90;3.50;;;;;;;11.38;43.29;95765.09;4937498;29;20233;-70
2021/03/30 00:03:53;;;;;;;9.27;3.67;;;;;;;11.49;42.72;95762.00;4954683;29;20301;-67
2021/03/30 00:06:19;;;;;;;9.83;4.30;;;;;;;11.54;42.79;95759.13;4954471;29;20170;-67
2021/03/30 00:08:44;;;;;;;9.07;3.83;;;;;;;11.39;42.28;95760.50;4954711;29;20175;-67
2021/03/30 00:11:10;;;;;;;10.10;4.23;;;;;;;11.34;42.40;95760.75;4954679;29;20182;-67
2021/03/30 00:13:35;;;;;;;6.30;3.80;;;;;;;11.39;42.46;95755.16;4936672;29;20254;-66
2021/03/30 00:16:01;;;;;;;14.77;4.33;;;;;;;11.22;43.06;95758.75;4954620;29;20183;-67
2021/03/30 00:18:26;;;;;;;8.80;4.80;;;;;;;11.22;43.48;95750.75;4954329;29;20186;-67
2021/03/30 00:20:52;;;;;;;8.70;4.47;;;;;;;11.18;43.19;95749.84;4954586;29;20558;-67
2021/03/30 00:23:17;;;;;;;8.33;4.93;;;;;;;11.42;43.66;95743.03;4954073;29;20195;-69
2021/03/30 00:25:43;;;;;;;8.77;4.47;;;;;;;11.45;42.92;95740.50;4954118;29;20315;-69
2021/03/30 00:28:08;;;;;;;10.30;4.80;;;;;;;11.31;44.03;95740.78;4936845;29;20202;-67
2021/03/30 00:30:34;;;;;;;6.57;4.30;;;;;;;11.37;44.09;95752.03;4937304;29;20167;-70
2021/03/30 00:32:59;;;;;;;8.60;5.10;;;;;;;11.36;44.20;95748.59;4936756;29;20663;-67
2021/03/30 00:35:25;;;;;;;9.50;4.10;;;;;;;11.37;44.12;95738.69;4954141;29;20175;-67
2021/03/30 00:37:50;;;;;;;7.90;4.23;;;;;;;11.34;44.44;95737.47;4936965;29;20548;-67
2021/03/30 00:40:16;;;;;;;6.67;3.97;;;;;;;11.31;43.93;95751.47;4936831;29;20678;-67
2021/03/30 00:42:41;;;;;;;6.63;3.97;;;;;;;11.15;44.63;95742.47;4954066;29;20721;-67
2021/03/30 00:45:09;;;;;;;11.07;3.53;;;;;;;11.20;43.87;95736.94;4935932;29;20226;-67
2021/03/30 00:47:36;;;;;;;7.63;5.43;;;;;;;11.05;44.22;95737.53;4954278;29;20179;-67
2021/03/30 00:50:01;;;;;;;9.07;4.60;;;;;;;11.06;43.91;95733.78;4936480;29;20783;-67
2021/03/30 00:52:27;;;;;;;9.50;4.00;;;;;;;10.93;43.98;95734.78;4952732;29;20531;-67
2021/03/30 00:54:52;;;;;;;10.43;4.60;;;;;;;10.67;44.72;95727.75;4936664;29;20175;-68
2021/03/30 00:57:18;;;;;;;7.70;4.50;;;;;;;10.78;44.77;95728.16;4953764;28;20777;-67
2021/03/30 00:59:44;;;;;;;9.60;4.03;;;;;;;10.92;44.08;95723.31;4953865;29;20174;-68
2021/03/30 01:02:10;;;;;;;7.13;4.40;;;;;;;11.01;44.37;95728.63;4952248;29;20690;-69
2021/03/30 01:04:35;;;;;;;8.57;4.13;;;;;;;11.01;44.16;95732.06;4936517;29;20438;-67
2021/03/30 01:07:01;;;;;;;12.30;4.40;;;;;;;10.98;44.58;95721.25;4936338;29;20194;-67
2021/03/30 01:09:48;;;;;;;7.93;4.27;;;;;;;11.03;44.77;95726.38;4953723;29;20657;-68
2021/03/30 01:12:22;;;;;;;11.30;4.33;;;;;;;10.85;43.80;95723.84;4952430;29;20187;-67
2021/03/30 01:15:10;;;;;;;6.67;4.13;;;;;;;10.74;44.07;95711.22;4953541;29;20418;-68
2021/03/30 01:17:39;;;;;;;7.00;3.93;;;;;;;10.91;44.35;95724.44;4952425;29;20438;-67
2021/03/30 01:20:26;;;;;;;7.83;3.43;;;;;;;10.84;44.17;95721.53;4953372;29;20419;-67
2021/03/30 01:23:27;;;;;;;7.50;4.17;;;;;;;10.70;45.14;95732.44;4953423;29;21000;-66
2021/03/30 01:26:02;;;;;;;9.47;4.10;;;;;;;10.66;43.95;95728.84;4937887;29;20621;-67
2021/03/30 01:28:47;;;;;;;4.87;3.43;;;;;;;10.79;43.67;95735.84;4936124;29;20459;-67
2021/03/30 01:31:13;;;;;;;10.60;3.93;;;;;;;10.59;43.35;95731.25;4936307;29;20429;-68
2021/03/30 01:33:39;;;;;;;13.37;4.23;;;;;;;10.62;44.86;95730.63;4936125;29;20458;-67
2021/03/30 01:36:05;;;;;;;6.67;3.93;;;;;;;10.48;45.19;95714.03;4936453;29;20451;-66
2021/03/30 01:38:30;;;;;;;8.40;3.63;;;;;;;10.67;44.54;95733.09;4952021;29;20179;-68
2021/03/30 01:40:56;;;;;;;10.70;3.60;;;;;;;10.39;45.50;95718.66;4953386;29;20175;-67
2021/03/30 01:43:21;;;;;;;6.60;4.00;;;;;;;10.28;45.27;95736.94;4936077;29;20214;-68
2021/03/30 01:45:51;;;;;;;7.60;3.47;;;;;;;10.28;45.18;95721.72;4936138;29;20705;-67
2021/03/30 01:48:16;;;;;;;7.50;3.70;;;;;;;10.26;44.21;95723.91;4936143;29;20304;-68
2021/03/30 01:50:42;;;;;;;6.73;3.50;;;;;;;10.06;44.82;95719.28;4951916;29;20410;-67
2021/03/30 01:53:07;;;;;;;5.17;3.17;;;;;;;10.31;44.64;95726.38;4936152;29;20178;-69
2021/03/30 01:55:33;;;;;;;9.13;3.63;;;;;;;10.33;44.50;95724.19;4935898;29;20263;-68
2021/03/30 01:57:59;;;;;;;6.50;3.30;;;;;;;10.00;44.88;95720.56;4936181;29;20665;-67
2021/03/30 02:00:27;;;;;;;5.13;3.53;;;;;;;10.05;45.07;95717.72;4936006;29;20171;-67
2021/03/30 02:02:53;;;;;;;8.47;3.57;;;;;;;10.20;44.62;95708.38;4952939;29;20195;-66
2021/03/30 02:05:20;;;;;;;5.40;3.47;;;;;;;10.08;44.43;95714.38;4952106;29;20485;-68
2021/03/30 02:07:45;;;;;;;8.33;3.53;;;;;;;10.13;44.72;95710.75;4952365;28;20182;-67
2021/03/30 02:10:19;;;;;;;11.43;3.67;;;;;;;9.95;45.23;95710.84;4955582;29;20415;-68
2021/03/30 02:12:45;;;;;;;7.93;3.23;;;;;;;10.00;44.68;95704.53;4956924;29;20650;-67
2021/03/30 02:15:14;;;;;;;5.73;3.70;;;;;;;10.03;45.36;95706.56;4939578;29;20414;-67
2021/03/30 02:17:55;;;;;;;5.80;3.20;;;;;;;10.06;45.17;95709.38;4939633;29;20207;-67
2021/03/30 02:20:24;;;;;;;7.77;3.10;;;;;;;10.06;46.54;95697.94;4955508;29;20442;-67
2021/03/30 02:23:03;;;;;;;10.40;4.00;;;;;;;10.01;45.81;95698.88;4955484;29;20462;-67
2021/03/30 02:25:30;;;;;;;6.50;3.10;;;;;;;9.90;45.61;95700.34;4955107;29;20474;-67
2021/03/30 02:27:56;;;;;;;7.60;3.53;;;;;;;9.81;45.16;95699.59;4956597;29;20430;-68
2021/03/30 02:30:23;;;;;;;9.17;3.50;;;;;;;9.83;44.57;95697.41;4955181;29;20438;-67
2021/03/30 02:32:49;;;;;;;7.77;3.83;;;;;;;10.01;44.92;95703.44;4939383;29;20619;-67
2021/03/30 02:35:14;;;;;;;9.43;3.60;;;;;;;9.95;45.81;95700.16;4939402;29;20427;-67
2021/03/30 02:37:40;;;;;;;10.77;3.43;;;;;;;9.80;45.37;95704.13;4939236;29;20565;-67
2021/03/30 02:40:08;;;;;;;4.80;3.37;;;;;;;9.85;44.89;95697.06;4956521;29;20274;-67
2021/03/30 02:42:35;;;;;;;7.43;3.33;;;;;;;9.94;44.90;95703.94;4938951;29;20478;-67
2021/03/30 02:45:01;;;;;;;8.17;3.50;;;;;;;9.96;46.17;95708.94;4955132;29;20465;-67
2021/03/30 02:47:26;;;;;;;7.07;3.67;;;;;;;9.81;46.28;95702.25;4939039;29;20458;-68
2021/03/30 02:49:52;;;;;;;7.33;3.93;;;;;;;9.79;45.70;95701.81;4956152;29;20596;-68
2021/03/30 02:52:17;;;;;;;6.73;4.13;;;;;;;9.51;45.46;95704.84;4938927;29;20670;-67
2021/03/30 02:54:43;;;;;;;9.13;5.27;;;;;;;9.56;44.58;95714.56;4939131;29;20218;-68
2021/03/30 02:57:08;;;;;;;5.13;3.33;;;;;;;9.71;45.55;95706.06;4954730;29;20194;-67
2021/03/30 02:59:34;;;;;;;6.97;3.40;;;;;;;9.75;44.81;95712.31;4954869;29;20675;-67
2021/03/30 03:01:59;;;;;;;9.67;3.33;;;;;;;9.77;44.59;95704.78;4938470;29;20198;-69
2021/03/30 03:04:26;;;;;;;5.00;3.83;;;;;;;9.78;44.79;95701.00;4938591;29;20210;-68
2021/03/30 03:06:51;;;;;;;7.05;4.43;;;;;;;9.84;46.27;95708.84;4954739;29;20422;-68
2021/03/30 03:09:17;;;;;;;6.73;4.37;;;;;;;10.00;44.18;95715.22;4954415;29;20553;-68
2021/03/30 03:11:43;;;;;;;8.50;3.50;;;;;;;9.89;45.25;95712.13;4922832;29;20187;-68
2021/03/30 03:14:09;;;;;;;6.23;3.30;;;;;;;9.84;45.51;95711.50;4955532;29;20263;-68
2021/03/30 03:16:35;;;;;;;8.60;3.90;;;;;;;9.64;45.17;95703.09;4954671;29;20493;-69
2021/03/30 03:19:00;;;;;;;8.60;3.80;;;;;;;9.59;45.82;95713.16;4937961;28;20842;-68
2021/03/30 03:21:26;;;;;;;9.20;3.90;;;;;;;9.64;44.77;95707.66;4953815;29;20182;-68
2021/03/30 03:23:51;;;;;;;6.33;3.97;;;;;;;9.58;45.55;95709.69;4953811;29;20226;-68
2021/03/30 03:26:17;;;;;;;9.80;3.47;;;;;;;9.65;45.05;95714.53;4938459;29;20185;-68
2021/03/30 03:28:43;;;;;;;9.30;4.10;;;;;;;9.53;45.34;95707.97;4954428;29;20245;-68
2021/03/30 03:31:12;;;;;;;8.53;3.90;;;;;;;9.68;45.01;95712.03;4955295;29;20187;-68
2021/03/30 03:33:37;;;;;;;6.33;3.80;;;;;;;9.50;44.76;95708.63;4954301;29;20175;-69
2021/03/30 03:36:09;;;;;;;6.93;3.97;;;;;;;9.55;45.14;95713.00;4938116;29;20482;-68
2021/03/30 03:38:35;;;;;;;5.57;3.77;;;;;;;9.62;45.59;95691.97;4938232;29;20261;-68
2021/03/30 03:41:01;;;;;;;5.83;3.80;;;;;;;9.63;45.94;95706.09;4937972;29;20509;-67
2021/03/30 03:43:26;;;;;;;7.30;3.90;;;;;;;9.52;46.62;95708.31;4938067;29;20466;-71
2021/03/30 03:45:52;;;;;;;8.50;4.00;;;;;;;9.47;44.84;95708.47;4936928;29;20442;-67
2021/03/30 03:48:17;;;;;;;8.03;3.83;;;;;;;9.53;44.54;95707.97;4955189;29;20713;-67
2021/03/30 03:50:43;;;;;;;7.37;3.60;;;;;;;9.54;47.12;95703.47;4954934;29;20262;-67
2021/03/30 03:53:08;;;;;;;12.20;3.73;;;;;;;9.31;46.20;95702.06;4954994;29;20651;-67
2021/03/30 03:55:34;;;;;;;6.43;3.40;;;;;;;9.39;45.97;95707.41;4937954;29;20525;-69
2021/03/30 03:58:01;;;;;;;9.10;3.43;;;;;;;9.50;45.46;95707.84;4954926;29;20183;-68
2021/03/30 04:00:27;;;;;;;5.70;3.77;;;;;;;9.40;46.14;95710.84;4937712;29;20175;-67
2021/03/30 04:03:06;;;;;;;11.40;3.67;;;;;;;9.41;45.78;95717.75;4937454;29;21027;-68
2021/03/30 04:05:40;;;;;;;6.23;3.40;;;;;;;9.56;45.23;95721.78;4953782;29;20175;-69
2021/03/30 04:08:09;;;;;;;6.23;3.50;;;;;;;9.41;45.60;95734.50;4937595;29;20441;-68
2021/03/30 04:10:34;;;;;;;6.57;3.80;;;;;;;9.14;46.66;95726.84;4937627;29;20421;-67
2021/03/30 04:13:00;;;;;;;6.37;4.07;;;;;;;9.09;45.69;95740.34;4937250;29;20883;-67
2021/03/30 04:15:26;;;;;;;9.47;5.00;;;;;;;9.17;45.93;95737.69;4954725;29;20175;-71
2021/03/30 04:17:52;;;;;;;6.60;3.93;;;;;;;9.02;46.63;95746.91;4937291;29;20544;-67
2021/03/30 04:20:18;;;;;;;8.20;3.93;;;;;;;9.13;46.21;95742.06;4953330;29;20203;-67
2021/03/30 04:22:47;;;;;;;10.60;4.60;;;;;;;9.14;45.93;95748.19;4954264;29;20470;-67
2021/03/30 04:25:13;;;;;;;9.17;4.07;;;;;;;9.27;46.76;95744.59;4954305;29;20489;-67
2021/03/30 04:27:38;;;;;;;11.30;4.07;;;;;;;9.22;45.51;95739.41;4954063;29;20970;-67
2021/03/30 04:30:05;;;;;;;8.20;3.90;;;;;;;9.27;44.99;95736.59;4937284;29;20183;-67
2021/03/30 04:32:30;;;;;;;5.77;3.67;;;;;;;9.24;46.78;95740.66;4936611;29;20253;-67
2021/03/30 04:34:56;;;;;;;6.27;4.33;;;;;;;9.30;47.20;95743.16;4953039;29;20857;-67
2021/03/30 04:37:22;;;;;;;10.93;4.70;;;;;;;9.31;46.89;95745.50;4936685;29;20646;-67
2021/03/30 04:39:47;;;;;;;6.63;4.07;;;;;;;9.23;48.16;95746.31;4936484;29;20190;-67
2021/03/30 04:42:13;;;;;;;6.77;3.97;;;;;;;9.35;46.58;95737.66;4954103;29;20503;-67
2021/03/30 04:44:38;;;;;;;10.60;4.20;;;;;;;9.43;46.47;95737.66;4953879;29;20206;-67
2021/03/30 04:47:04;;;;;;;9.60;3.83;;;;;;;9.44;45.93;95738.44;4937184;29;20186;-67
2021/03/30 04:49:30;;;;;;;8.83;4.30;;;;;;;9.38;45.17;95745.03;4953913;29;20187;-68
2021/03/30 04:51:55;;;;;;;10.43;4.60;;;;;;;9.11;47.13;95746.16;4952918;29;20600;-70
2021/03/30 04:54:21;;;;;;;9.33;4.43;;;;;;;9.23;47.95;95746.31;4954116;29;20263;-69
2021/03/30 04:56:47;;;;;;;10.20;4.37;;;;;;;9.27;47.95;95753.34;4954062;29;20171;-69
2021/03/30 04:59:12;;;;;;;8.40;4.80;;;;;;;9.31;47.55;95750.03;4953521;29;20215;-69
2021/03/30 05:01:38;;;;;;;12.80;4.27;;;;;;;9.27;46.87;95748.03;4953921;29;20230;-67
2021/03/30 05:04:03;;;;;;;11.27;4.60;;;;;;;9.25;47.81;95749.41;4953763;29;20251;-69
2021/03/30 05:06:29;;;;;;;23.57;5.50;;;;;;;9.26;47.46;95746.47;4953757;29;20560;-67
2021/03/30 05:08:54;;;;;;;12.47;4.43;;;;;;;9.44;46.71;95741.13;4953792;29;20178;-72
2021/03/30 05:11:20;;;;;;;8.23;5.03;;;;;;;9.38;47.93;95756.47;4953512;29;20171;-69
2021/03/30 05:13:45;;;;;;;13.70;4.83;;;;;;;9.22;47.03;95740.19;4953654;29;20533;-69
2021/03/30 05:16:11;;;;;;;11.07;5.10;;;;;;;9.25;47.48;95750.19;4953382;29;20183;-68
2021/03/30 05:18:37;;;;;;;15.60;5.63;;;;;;;9.39;47.13;95751.94;4953595;29;20689;-68
2021/03/30 05:21:03;;;;;;;9.17;5.20;;;;;;;9.36;47.44;95757.88;4953355;29;20341;-68
2021/03/30 05:23:29;;;;;;;11.83;5.30;;;;;;;9.46;46.99;95744.22;4953560;29;20861;-68
2021/03/30 05:25:54;;;;;;;17.40;5.70;;;;;;;9.51;45.60;95744.06;4952125;29;20553;-70
2021/03/30 05:28:20;;;;;;;14.50;5.20;;;;;;;9.56;46.15;95743.91;4936223;29;20620;-70
2021/03/30 05:30:45;;;;;;;9.93;5.00;;;;;;;9.66;45.53;95742.78;4953161;29;20222;-67
2021/03/30 05:33:11;;;;;;;13.10;5.47;;;;;;;9.61;45.98;95750.97;4953237;29;20171;-68
2021/03/30 05:35:36;;;;;;;16.27;4.53;;;;;;;9.76;45.71;95753.91;4953428;29;20206;-68
2021/03/30 05:38:02;;;;;;;8.27;4.90;;;;;;;9.91;44.28;95757.94;4953120;29;20651;-68
2021/03/30 05:40:27;;;;;;;12.63;4.67;;;;;;;9.96;43.71;95756.97;4935974;29;20191;-69
2021/03/30 05:42:54;;;;;;;10.67;4.37;;;;;;;9.88;44.30;95742.56;4953487;28;20206;-69
2021/03/30 05:45:19;;;;;;;11.30;5.00;;;;;;;9.99;42.59;95751.00;4940241;29;20175;-68
2021/03/30 05:47:45;;;;;;;10.30;6.03;;;;;;;9.87;42.91;95754.31;4955918;29;20433;-67
2021/03/30 05:50:15;;;;;;;23.13;7.13;;;;;;;10.01;42.85;95759.47;4939719;29;20650;-67
2021/03/30 05:52:51;;;;;;;8.07;4.70;;;;;;;10.06;44.09;95759.28;4957144;29;20203;-68
2021/03/30 05:55:37;;;;;;;15.33;6.87;;;;;;;10.13;42.72;95764.91;4955789;29;20413;-68
2021/03/30 05:58:03;;;;;;;16.00;6.03;;;;;;;10.28;42.62;95768.97;4956595;29;20438;-67
2021/03/30 06:00:37;;;;;;;9.10;5.57;;;;;;;10.34;42.62;95770.34;4939832;29;20418;-68
2021/03/30 06:03:28;;;;;;;12.00;5.20;;;;;;;10.69;41.86;95770.16;4939465;29;20568;-66
2021/03/30 06:05:55;;;;;;;10.70;5.10;;;;;;;10.63;41.48;95774.13;4937367;29;20814;-69
2021/03/30 06:08:21;;;;;;;14.50;6.30;;;;;;;10.63;42.00;95774.91;4938708;29;20499;-68
2021/03/30 06:10:47;;;;;;;9.17;4.67;;;;;;;10.84;41.06;95775.72;4939704;29;20513;-70
2021/03/30 06:13:13;;;;;;;6.67;4.90;;;;;;;10.91;40.02;95783.22;4955507;29;20444;-67
2021/03/30 06:15:38;;;;;;;8.33;4.27;;;;;;;10.67;40.45;95783.06;4956784;29;20183;-72
2021/03/30 06:18:18;;;;;;;11.53;5.00;;;;;;;11.06;41.20;95782.66;4956600;29;20175;-68
2021/03/30 06:20:43;;;;;;;11.37;4.80;;;;;;;11.22;40.68;95790.84;4955435;29;20258;-70
2021/03/30 06:23:09;;;;;;;20.53;5.43;;;;;;;11.46;38.04;95792.09;4956223;29;20465;-70
2021/03/30 06:25:45;;;;;;;11.87;5.70;;;;;;;11.34;39.69;95796.28;4955284;29;20239;-72
2021/03/30 06:28:14;;;;;;;10.77;4.70;;;;;;;11.50;38.56;95790.31;4956405;29;20210;-68
2021/03/30 06:31:18;;;;;;;9.70;5.17;;;;;;;11.59;37.32;95796.38;4956469;29;20418;-68
2021/03/30 06:33:57;;;;;;;7.63;4.53;;;;;;;11.58;38.97;95789.47;4916049;29;20447;-71
2021/03/30 06:36:26;;;;;;;8.83;5.00;;;;;;;11.62;37.71;95791.16;4916008;29;20467;-68
2021/03/30 06:38:54;;;;;;;11.73;5.47;;;;;;;11.64;36.71;95788.16;4916040;29;20463;-71
2021/03/30 06:44:25;;;;;;;8.27;4.97;;;;;;;11.63;37.91;95778.56;4902576;29;20583;-68
2021/03/30 06:46:55;;;;;;;10.33;4.97;;;;;;;11.71;37.91;95785.72;4915803;29;20447;-72
2021/03/30 06:49:21;;;;;;;12.40;4.53;;;;;;;11.66;37.02;95769.88;4900824;29;20450;-67
2021/03/30 06:51:46;;;;;;;9.80;5.03;;;;;;;12.07;37.86;95790.41;4899975;29;20810;-70
2021/03/30 06:54:12;;;;;;;11.80;4.73;;;;;;;12.20;35.64;95783.19;4915617;29;20276;-68
2021/03/30 06:57:04;;;;;;;8.07;4.57;;;;;;;12.23;36.44;95784.41;4915575;29;21045;-67
2021/03/30 06:59:30;;;;;;;11.20;3.70;;;;;;;12.36;36.63;95780.63;4913020;29;20543;-69
2021/03/30 07:01:56;;;;;;;5.37;3.80;;;;;;;12.39;35.23;95787.97;4899745;29;20480;-68
2021/03/30 07:04:22;;;;;;;10.57;4.10;;;;;;;12.39;37.31;95787.97;4934059;29;20474;-69
2021/03/30 07:06:53;;;;;;;5.67;3.50;;;;;;;12.70;34.90;95788.22;4955752;29;20414;-69
2021/03/30 07:09:20;;;;;;;3.90;3.00;;;;;;;12.93;34.61;95793.88;4955598;29;20175;-69
2021/03/30 07:11:46;;;;;;;8.10;3.50;;;;;;;12.62;32.54;95783.75;4937610;29;20976;-67
2021/03/30 07:14:12;;;;;;;3.97;3.03;;;;;;;12.49;33.52;95781.41;4954609;29;20419;-68
2021/03/30 07:16:48;;;;;;;5.13;3.60;;;;;;;12.46;34.25;95774.84;4938298;29;20223;-68
2021/03/30 07:19:14;;;;;;;5.27;3.07;;;;;;;12.51;33.12;95784.53;4955601;29;20171;-69
2021/03/30 07:22:02;;;;;;;4.40;3.30;;;;;;;12.25;32.78;95782.97;4938361;29;20442;-69
2021/03/30 07:24:31;;;;;;;6.70;3.27;;;;;;;12.07;34.99;95781.59;4955296;29;20227;-69
2021/03/30 07:27:05;;;;;;;9.47;4.37;;;;;;;12.56;33.69;95786.97;4955269;29;20422;-69
2021/03/30 07:29:37;;;;;;;11.47;3.80;;;;;;;12.76;34.47;95794.13;4938437;29;20471;-68
2021/03/30 07:32:06;;;;;;;6.67;3.93;;;;;;;12.68;34.16;95795.00;4938187;29;20938;-68
2021/03/30 07:34:57;;;;;;;9.90;4.17;;;;;;;12.51;33.22;95787.19;4955210;29;20434;-69
2021/03/30 07:37:58;;;;;;;9.20;4.20;;;;;;;12.68;34.85;95793.13;4955286;29;20519;-69
2021/03/30 07:40:24;;;;;;;6.90;4.03;;;;;;;13.07;34.83;95792.75;4914760;29;20429;-69
2021/03/30 07:42:49;;;;;;;7.67;4.30;;;;;;;13.32;34.23;95782.78;4899131;29;20491;-70
2021/03/30 07:45:17;;;;;;;6.97;3.93;;;;;;;13.28;32.63;95785.34;4899018;29;20239;-69
2021/03/30 07:47:42;;;;;;;5.07;3.47;;;;;;;13.27;31.88;95783.78;4914670;29;20743;-69
2021/03/30 07:50:08;;;;;;;4.27;3.53;;;;;;;13.04;32.44;95791.53;4898963;29;20492;-69
2021/03/30 07:52:43;;;;;;;8.37;3.70;;;;;;;12.90;32.94;95791.88;4914947;29;20199;-68
2021/03/30 07:55:18;;;;;;;5.73;4.47;;;;;;;12.74;32.77;95792.88;4914490;29;20931;-69
2021/03/30 07:57:57;;;;;;;6.30;3.93;;;;;;;12.88;32.73;95788.75;4914697;29;20436;-70
2021/03/30 08:00:31;;;;;;;8.60;4.27;;;;;;;12.98;34.10;95785.63;4898604;29;20967;-71
2021/03/30 08:03:09;;;;;;;8.30;3.80;;;;;;;13.20;33.71;95778.97;4914526;29;20475;-68
2021/03/30 08:05:34;;;;;;;12.83;4.33;;;;;;;13.56;33.57;95789.94;4898900;29;20447;-69
2021/03/30 08:08:00;;;;;;;12.40;5.07;;;;;;;13.69;32.81;95794.94;4914587;29;20960;-68
2021/03/30 08:10:35;;;;;;;11.07;5.07;;;;;;;14.07;32.07;95790.16;4914183;29;20181;-72
2021/03/30 08:13:30;;;;;;;6.23;3.73;;;;;;;14.03;31.13;95790.84;4898819;29;20192;-69
2021/03/30 08:15:59;;;;;;;5.93;3.63;;;;;;;14.05;31.68;95793.19;4954662;29;20463;-69
2021/03/30 08:18:27;;;;;;;8.50;3.63;;;;;;;14.39;30.56;95789.03;4954466;29;20444;-69
2021/03/30 08:20:58;;;;;;;5.97;3.33;;;;;;;14.49;30.36;95787.78;4954464;29;20482;-68
2021/03/30 08:23:25;;;;;;;10.60;3.57;;;;;;;14.60;30.63;95796.09;4954221;29;20477;-68
2021/03/30 08:25:52;;;;;;;10.97;3.83;;;;;;;14.35;30.21;95785.47;4954271;29;20996;-68
2021/03/30 08:29:02;;;;;;;6.53;3.70;;;;;;;14.42;30.28;95788.34;4937505;29;20431;-72
2021/03/30 08:31:28;;;;;;;10.37;3.70;;;;;;;14.52;29.71;95792.44;4914085;29;20492;-68
2021/03/30 08:33:58;;;;;;;7.43;3.93;;;;;;;14.61;30.40;95789.59;4897765;29;20441;-69
2021/03/30 08:36:29;;;;;;;10.37;4.00;;;;;;;14.65;29.18;95783.16;4914097;29;20943;-70
2021/03/30 08:38:59;;;;;;;8.70;4.03;;;;;;;14.52;29.35;95787.84;4881815;29;20443;-68
2021/03/30 08:41:55;;;;;;;7.60;4.37;;;;;;;14.63;30.07;95785.41;4913994;29;20613;-68
2021/03/30 08:45:00;;;;;;;6.60;3.43;;;;;;;14.69;29.51;95780.53;4886308;29;20510;-71
2021/03/30 08:47:32;;;;;;;8.97;3.40;;;;;;;14.80;30.46;95785.03;4913539;29;20436;-68
2021/03/30 08:50:14;;;;;;;9.33;3.70;;;;;;;15.12;29.64;95770.75;4913917;29;20868;-68
2021/03/30 08:52:40;;;;;;;4.23;3.00;;;;;;;15.30;27.10;95782.66;4913898;29;20528;-68
2021/03/30 08:55:08;;;;;;;6.07;3.33;;;;;;;15.21;28.30;95782.88;4913770;29;20436;-67
2021/03/30 08:57:35;;;;;;;8.30;3.57;;;;;;;15.49;29.46;95788.06;4913866;29;20189;-73
2021/03/30 09:00:03;;;;;;;7.20;4.60;;;;;;;15.65;28.86;95779.13;4913544;29;20476;-70
2021/03/30 09:02:29;;;;;;;5.63;3.87;;;;;;;15.84;27.82;95785.28;4913303;29;20200;-69
2021/03/30 09:04:55;;;;;;;11.83;4.00;;;;;;;15.81;27.40;95767.13;4897789;29;20280;-66
2021/03/30 09:07:21;;;;;;;4.67;3.50;;;;;;;15.77;27.36;95773.59;4924164;29;20675;-72
2021/03/30 09:09:47;;;;;;;5.67;3.00;;;;;;;15.55;27.30;95783.94;4952493;29;20261;-67
2021/03/30 09:12:21;;;;;;;5.70;3.10;;;;;;;15.79;27.52;95785.59;4936075;29;20191;-73
2021/03/30 09:15:04;;;;;;;9.23;3.70;;;;;;;15.68;26.65;95781.13;4953634;29;20488;-68
2021/03/30 09:17:30;;;;;;;4.83;3.20;;;;;;;15.49;26.97;95779.97;4952365;28;20186;-68
2021/03/30 09:19:55;;;;;;;7.87;3.40;;;;;;;15.50;27.60;95781.53;4953553;29;20426;-68
2021/03/30 09:22:31;;;;;;;5.43;3.13;;;;;;;15.48;27.33;95778.41;4935661;29;20578;-69
2021/03/30 09:27:34;;;;;;;5.27;2.97;;;;;;;15.11;27.27;95771.88;4937445;29;20465;-71
2021/03/30 09:30:01;;;;;;;6.63;3.37;;;;;;;15.28;26.56;95766.88;4953373;29;20481;-69
2021/03/30 09:32:28;;;;;;;3.83;2.57;;;;;;;15.18;27.56;95770.09;4935522;29;20441;-68
2021/03/30 09:34:54;;;;;;;4.37;2.97;;;;;;;15.24;28.07;95763.31;4953493;29;20422;-67
2021/03/30 09:37:20;;;;;;;6.83;3.40;;;;;;;15.49;26.70;95769.22;4935810;29;20537;-69
2021/03/30 09:39:46;;;;;;;4.53;3.33;;;;;;;15.05;26.96;95758.72;4953258;29;20434;-71
2021/03/30 09:42:11;;;;;;;7.60;3.57;;;;;;;15.31;27.14;95759.97;4935899;29;20548;-70
2021/03/30 09:44:42;;;;;;;7.13;3.20;;;;;;;15.52;27.24;95756.94;4935770;29;20254;-68
2021/03/30 09:47:08;;;;;;;5.53;3.27;;;;;;;15.74;27.06;95752.78;4952337;28;20182;-71
2021/03/30 09:49:34;;;;;;;5.07;3.07;;;;;;;15.89;26.67;95743.81;4970299;28;20448;-70
2021/03/30 09:52:00;;;;;;;5.80;2.93;;;;;;;15.74;26.21;95742.78;4957357;28;20649;-71
2021/03/30 09:54:31;;;;;;;6.03;2.60;;;;;;;15.69;26.99;95745.75;4939154;28;20214;-71
2021/03/30 09:56:57;;;;;;;6.87;3.00;;;;;;;15.77;27.66;95738.59;4955407;28;20186;-67
2021/03/30 09:59:22;;;;;;;4.10;3.10;;;;;;;16.28;27.38;95739.09;4972227;28;20178;-70
2021/03/30 10:01:48;;;;;;;6.37;2.80;;;;;;;16.47;25.71;95734.75;4955199;28;20445;-69
2021/03/30 10:04:13;;;;;;;7.17;3.57;;;;;;;16.37;26.64;95730.75;4939019;28;20265;-70
2021/03/30 10:06:39;;;;;;;4.07;2.53;;;;;;;16.59;26.49;95731.88;4972558;28;20229;-68
2021/03/30 10:09:05;;;;;;;8.07;3.37;;;;;;;16.88;26.69;95735.78;4954508;28;20198;-69
2021/03/30 10:11:31;;;;;;;5.73;3.10;;;;;;;17.23;25.07;95730.09;4955462;28;20190;-69
2021/03/30 10:14:15;;;;;;;6.93;3.80;;;;;;;17.25;24.70;95732.41;4957149;28;20236;-68
2021/03/30 10:16:40;;;;;;;6.93;2.80;;;;;;;17.51;24.98;95726.13;4945016;28;20218;-68
2021/03/30 10:19:06;;;;;;;6.67;2.93;;;;;;;17.54;24.11;95723.50;4971204;28;20560;-68
2021/03/30 10:21:35;;;;;;;7.50;3.40;;;;;;;17.48;25.10;95711.47;4971451;28;20230;-68
2021/03/30 10:24:12;;;;;;;9.13;3.10;;;;;;;17.49;24.64;95706.84;4953640;28;20213;-68
2021/03/30 10:26:37;;;;;;;7.50;3.43;;;;;;;17.57;24.31;95705.78;4953961;28;20244;-69
2021/03/30 10:29:06;;;;;;;6.70;3.20;;;;;;;17.64;24.85;95714.72;4972160;28;20611;-70
2021/03/30 10:31:56;;;;;;;5.53;3.17;;;;;;;17.37;25.25;95713.28;4983025;28;20540;-69
2021/03/30 10:34:32;;;;;;;3.23;2.90;;;;;;;17.30;24.39;95702.41;4974738;28;20218;-69
2021/03/30 10:37:00;;;;;;;5.50;3.17;;;;;;;17.59;24.72;95704.25;4967571;28;20170;-70
2021/03/30 10:39:44;;;;;;;6.03;3.40;;;;;;;17.85;24.81;95703.41;4974438;28;20179;-68
2021/03/30 10:42:13;;;;;;;5.67;3.10;;;;;;;18.10;23.79;95695.50;4959877;28;20182;-70
2021/03/30 10:44:55;;;;;;;10.07;2.87;;;;;;;18.05;24.01;95687.75;4957905;28;20202;-68
2021/03/30 10:47:22;;;;;;;7.20;3.27;;;;;;;18.33;23.90;95705.34;4959350;28;20158;-69
2021/03/30 10:49:49;;;;;;;5.67;3.10;;;;;;;18.47;24.82;95700.81;4973212;28;20194;-68
2021/03/30 10:52:27;;;;;;;8.30;3.73;;;;;;;18.34;23.69;95696.06;4973160;28;20194;-69
2021/03/30 10:54:55;;;;;;;4.47;3.03;;;;;;;18.12;24.69;95697.81;4973731;28;20186;-69
2021/03/30 10:57:22;;;;;;;4.17;2.43;;;;;;;18.62;37.48;95690.09;4974490;28;20257;-69
2021/03/30 10:59:47;;;;;;;3.80;2.80;;;;;;;18.64;31.63;95683.16;4956799;28;20201;-70
2021/03/30 11:02:13;;;;;;;4.57;2.90;;;;;;;19.22;32.44;95689.66;4973273;28;20190;-71
2021/03/30 11:04:39;;;;;;;5.80;3.57;;;;;;;19.38;24.39;95689.34;4957181;28;20202;-71
2021/03/30 11:07:05;;;;;;;5.63;3.03;;;;;;;19.10;27.10;95671.81;4974758;28;20653;-71
2021/03/30 11:09:31;;;;;;;4.97;3.30;;;;;;;18.83;30.35;95673.25;4956832;28;20182;-71
2021/03/30 11:11:56;;;;;;;5.37;3.80;;;;;;;18.44;35.18;95671.81;4974340;28;20202;-71
2021/03/30 11:14:22;;;;;;;5.03;3.30;;;;;;;18.48;29.14;95666.44;4974159;28;20158;-71
2021/03/30 11:16:48;;;;;;;6.80;3.77;;;;;;;18.45;25.41;95662.53;4974350;28;20622;-69
2021/03/30 11:19:14;;;;;;;10.33;3.50;;;;;;;18.71;25.66;95667.00;4973867;28;20599;-69
2021/03/30 11:21:40;;;;;;;7.10;3.60;;;;;;;19.10;27.43;95671.06;4974139;28;20170;-71
2021/03/30 11:24:06;;;;;;;4.73;3.30;;;;;;;19.14;29.10;95661.78;4976196;28;21446;-71
2021/03/30 11:26:32;;;;;;;9.33;3.03;;;;;;;19.15;22.80;95660.63;4993591;28;20189;-70
2021/03/30 11:28:59;;;;;;;3.37;2.60;;;;;;;19.19;27.30;95660.63;4976186;28;20645;-71
2021/03/30 11:34:00;;;;;;;6.77;3.50;;;;;;;19.36;26.35;95664.56;4993221;28;20640;-69
2021/03/30 11:36:26;;;;;;;4.20;2.60;;;;;;;19.06;27.12;95662.91;4993252;28;20637;-69
2021/03/30 11:38:51;;;;;;;5.57;2.80;;;;;;;19.21;25.04;95658.34;4993249;28;20253;-71
2021/03/30 11:41:17;;;;;;;10.77;3.70;;;;;;;18.68;24.54;95645.31;4991939;28;20626;-70
2021/03/30 11:43:42;;;;;;;7.47;2.93;;;;;;;18.93;27.00;95640.81;4993246;28;20193;-70
2021/03/30 11:46:08;;;;;;;4.03;3.07;;;;;;;18.91;23.76;95637.72;4992517;28;20589;-70
2021/03/30 11:48:33;;;;;;;5.17;2.87;;;;;;;18.86;26.96;95629.97;4958851;28;20190;-70
2021/03/30 11:50:59;;;;;;;5.20;2.80;;;;;;;18.85;25.93;95633.03;4973474;28;20549;-70